Time;durP1;ratioP1;P1;durP2;ratioP2;P2;SDS_P1;SDS_P2;PMS_P1;PMS_P2;Temp;Humidity;BMP_temperature;BMP_pressure;BME280_temperature;BME280_humidity;BME280_pressure;Samples;Min_cycle;Max_cycle;Signal;HPM_P1;HPM_P2
2023/08/06 00:02:07;;;;;;;5.93;3.42;;;15.10;99.90;;;;;;5034282;28;20493;-70
2023/08/06 00:04:33;;;;;;;3.78;2.50;;;15.00;99.90;;;;;;5036785;28;20053;-70
2023/08/06 00:06:58;;;;;;;7.28;3.03;;;15.10;99.90;;;;;;5036908;28;20060;-70
2023/08/06 00:09:24;;;;;;;6.55;3.10;;;15.10;99.90;;;;;;5051657;28;20044;-70
2023/08/06 00:11:49;;;;;;;4.60;2.63;;;15.00;99.90;;;;;;5036807;28;20040;-70
2023/08/06 00:14:17;;;;;;;7.45;3.28;;;15.00;99.90;;;;;;5037011;28;20041;-70
2023/08/06 00:16:46;;;;;;;5.45;2.65;;;15.00;99.90;;;;;;5040188;28;20052;-70
2023/08/06 00:19:12;;;;;;;6.65;2.90;;;15.00;99.90;;;;;;5044748;28;20033;-70
2023/08/06 00:21:37;;;;;;;5.65;2.70;;;15.00;99.90;;;;;;5058303;28;20041;-70
2023/08/06 00:24:03;;;;;;;6.00;3.03;;;15.00;99.90;;;;;;5022984;28;20118;-70
2023/08/06 00:26:28;;;;;;;5.68;3.15;;;15.00;99.90;;;;;;5040660;28;20041;-70
2023/08/06 00:28:54;;;;;;;8.32;2.90;;;15.00;99.90;;;;;;5043138;28;20025;-70
2023/08/06 00:31:20;;;;;;;5.75;3.03;;;15.00;99.90;;;;;;5021402;28;20079;-70
2023/08/06 00:33:45;;;;;;;6.88;3.10;;;15.00;99.90;;;;;;5036623;28;20064;-70
2023/08/06 00:36:11;;;;;;;4.70;2.85;;;15.00;99.90;;;;;;5022138;28;20091;-70
2023/08/06 00:38:36;;;;;;;6.82;3.10;;;15.00;99.90;;;;;;5039096;28;20068;-70
2023/08/06 00:41:02;;;;;;;5.85;3.38;;;15.00;99.90;;;;;;5039538;28;20033;-70
2023/08/06 00:43:28;;;;;;;5.53;2.92;;;15.00;99.90;;;;;;5041170;28;20452;-70
2023/08/06 00:45:53;;;;;;;4.97;2.88;;;15.00;99.90;;;;;;5074281;28;20061;-70
2023/08/06 00:48:20;;;;;;;8.73;2.95;;;15.00;99.90;;;;;;5040436;28;20429;-70
2023/08/06 00:50:46;;;;;;;5.07;2.30;;;14.90;99.90;;;;;;5035207;28;20491;-70
2023/08/06 00:53:12;;;;;;;5.13;2.60;;;14.90;99.90;;;;;;5040032;28;20031;-70
2023/08/06 00:55:37;;;;;;;6.50;3.08;;;14.90;99.90;;;;;;5040455;28;20040;-70
2023/08/06 00:58:04;;;;;;;6.63;2.90;;;14.90;99.90;;;;;;5041050;28;20376;-70
2023/08/06 01:00:30;;;;;;;10.85;2.90;;;14.90;99.90;;;;;;5042578;28;21883;-70
2023/08/06 01:02:56;;;;;;;7.88;2.97;;;14.90;99.90;;;;;;5038133;28;20029;-70
2023/08/06 01:05:23;;;;;;;5.72;2.65;;;14.90;99.90;;;;;;5042900;28;20076;-70
2023/08/06 01:08:31;;;;;;;6.57;3.05;;;14.90;99.90;;;;;;5041346;28;20470;-70
2023/08/06 01:11:33;;;;;;;6.20;3.25;;;14.90;99.90;;;;;;5039909;28;20029;-70
2023/08/06 01:14:15;;;;;;;5.25;3.15;;;14.90;99.90;;;;;;5042608;28;20076;-70
2023/08/06 01:16:41;;;;;;;5.20;2.78;;;14.90;99.90;;;;;;5073244;28;20308;-70
2023/08/06 01:19:16;;;;;;;6.10;2.80;;;15.00;99.90;;;;;;5041788;28;20035;-70
2023/08/06 01:21:42;;;;;;;4.20;2.38;;;14.90;99.90;;;;;;5040669;28;20041;-70
2023/08/06 01:24:08;;;;;;;5.85;2.85;;;14.90;99.90;;;;;;5037822;28;20063;-70
2023/08/06 01:26:57;;;;;;;6.05;2.35;;;14.90;99.90;;;;;;5039648;28;20048;-70
2023/08/06 01:29:33;;;;;;;6.07;2.47;;;14.90;99.90;;;;;;5038224;28;20364;-70
2023/08/06 01:31:59;;;;;;;5.38;2.83;;;14.90;99.90;;;;;;5041445;28;20037;-70
2023/08/06 01:34:30;;;;;;;5.25;2.88;;;14.90;99.90;;;;;;5040778;28;20037;-70
2023/08/06 01:36:56;;;;;;;8.05;3.33;;;14.90;99.90;;;;;;5043503;28;20162;-70
2023/08/06 01:39:22;;;;;;;6.63;2.83;;;14.90;99.90;;;;;;5040972;28;20574;-70
2023/08/06 01:41:48;;;;;;;4.90;2.55;;;14.90;99.90;;;;;;5076241;28;20123;-70
2023/08/06 01:44:15;;;;;;;6.55;3.13;;;14.90;99.90;;;;;;5039488;28;20025;-70
2023/08/06 01:46:41;;;;;;;7.05;3.08;;;14.90;99.90;;;;;;5044391;28;20040;-70
2023/08/06 01:49:07;;;;;;;5.47;2.67;;;14.90;99.90;;;;;;5039929;28;20730;-70
2023/08/06 01:51:32;;;;;;;4.63;2.53;;;14.90;99.90;;;;;;5071508;28;20033;-70
2023/08/06 01:53:58;;;;;;;6.00;2.67;;;14.90;99.90;;;;;;5073895;28;20033;-70
2023/08/06 01:56:23;;;;;;;5.82;2.90;;;14.90;99.90;;;;;;5041444;28;20392;-70
2023/08/06 01:58:49;;;;;;;4.57;2.55;;;14.80;99.90;;;;;;5036093;28;20052;-70
2023/08/06 02:01:15;;;;;;;6.13;2.75;;;14.80;99.90;;;;;;5042374;28;20041;-70
2023/08/06 02:03:40;;;;;;;4.95;2.83;;;14.80;99.90;;;;;;5040474;28;20041;-70
2023/08/06 02:06:06;;;;;;;5.43;2.92;;;14.80;99.90;;;;;;5041672;28;20041;-70
2023/08/06 02:08:31;;;;;;;6.38;2.90;;;14.80;99.90;;;;;;5041215;28;20044;-70
2023/08/06 02:10:58;;;;;;;4.90;2.67;;;14.80;99.90;;;;;;5039960;28;20033;-70
2023/08/06 02:13:23;;;;;;;5.45;2.60;;;14.80;99.90;;;;;;5040911;28;20090;-70
2023/08/06 02:15:49;;;;;;;7.32;3.40;;;14.80;99.90;;;;;;5041809;28;20049;-70
2023/08/06 02:18:16;;;;;;;6.30;2.70;;;14.80;99.90;;;;;;5041029;28;20124;-70
2023/08/06 02:20:42;;;;;;;5.65;2.85;;;14.80;99.90;;;;;;5073054;28;20041;-70
2023/08/06 02:23:07;;;;;;;5.93;2.95;;;14.80;99.90;;;;;;5040988;28;20116;-70
2023/08/06 02:25:33;;;;;;;5.40;2.95;;;14.80;99.90;;;;;;5042327;28;20464;-70
2023/08/06 02:27:59;;;;;;;5.22;2.55;;;14.80;99.90;;;;;;5040914;28;20052;-70
2023/08/06 02:30:25;;;;;;;7.85;3.13;;;14.80;99.90;;;;;;5042092;28;20041;-70
2023/08/06 02:32:50;;;;;;;6.90;3.10;;;14.80;99.90;;;;;;5041419;28;20518;-70
2023/08/06 02:35:16;;;;;;;6.70;2.90;;;14.80;99.90;;;;;;5042377;28;20127;-70
2023/08/06 02:37:41;;;;;;;6.28;2.90;;;14.80;99.90;;;;;;5054279;28;20048;-70
2023/08/06 02:40:07;;;;;;;6.78;3.00;;;14.80;99.90;;;;;;5040464;28;20124;-70
2023/08/06 02:42:33;;;;;;;5.28;2.83;;;14.80;99.90;;;;;;5041077;28;20049;-70
2023/08/06 02:44:59;;;;;;;7.30;3.30;;;14.80;99.90;;;;;;5039738;28;20037;-70
2023/08/06 02:47:24;;;;;;;5.30;2.97;;;14.80;99.90;;;;;;5040821;28;20072;-70
2023/08/06 02:49:50;;;;;;;8.07;3.13;;;14.80;99.90;;;;;;5025319;28;20037;-70
2023/08/06 02:52:16;;;;;;;6.93;2.95;;;14.80;99.90;;;;;;5036737;28;20072;-70
2023/08/06 02:54:42;;;;;;;7.50;3.38;;;14.80;99.90;;;;;;5041682;28;20399;-70
2023/08/06 02:57:07;;;;;;;6.30;2.92;;;14.80;99.90;;;;;;5054177;28;20049;-70
2023/08/06 02:59:33;;;;;;;10.07;3.30;;;14.80;99.90;;;;;;5041344;28;20565;-70
2023/08/06 03:01:59;;;;;;;6.45;3.30;;;14.80;99.90;;;;;;5039511;28;20494;-70
2023/08/06 03:04:25;;;;;;;7.10;3.22;;;14.80;99.90;;;;;;5041055;28;20048;-70
2023/08/06 03:06:51;;;;;;;6.20;3.30;;;14.80;99.90;;;;;;5023520;28;20498;-70
2023/08/06 03:09:17;;;;;;;6.97;3.28;;;14.80;99.90;;;;;;5039882;28;20040;-70
2023/08/06 03:11:42;;;;;;;8.43;3.38;;;14.80;99.90;;;;;;5071542;28;20040;-70
2023/08/06 03:14:08;;;;;;;7.97;3.55;;;14.80;99.90;;;;;;5041107;28;20437;-70
2023/08/06 03:16:34;;;;;;;6.57;3.20;;;14.80;99.90;;;;;;5041674;28;20051;-70
2023/08/06 03:18:59;;;;;;;5.82;3.25;;;14.80;99.90;;;;;;5040062;28;20041;-70
2023/08/06 03:21:25;;;;;;;6.57;3.42;;;14.70;99.90;;;;;;5039956;28;20063;-70
2023/08/06 03:23:50;;;;;;;6.15;3.13;;;14.60;99.90;;;;;;5036547;28;20573;-70
2023/08/06 03:26:16;;;;;;;10.88;3.30;;;14.70;99.90;;;;;;5039193;28;20033;-70
2023/08/06 03:28:42;;;;;;;7.50;3.60;;;14.70;99.90;;;;;;5039454;28;20490;-70
2023/08/06 03:31:07;;;;;;;6.35;3.17;;;14.70;99.90;;;;;;5039796;28;20033;-70
2023/08/06 03:33:33;;;;;;;5.13;2.63;;;14.70;99.90;;;;;;5040666;28;20029;-70
2023/08/06 03:35:59;;;;;;;5.18;2.88;;;14.70;99.90;;;;;;5040759;28;20044;-70
2023/08/06 03:38:24;;;;;;;6.88;3.53;;;14.70;99.90;;;;;;5068080;28;20405;-70
2023/08/06 03:40:50;;;;;;;6.63;3.75;;;14.60;99.90;;;;;;5042548;28;20037;-70
2023/08/06 03:43:16;;;;;;;6.25;3.38;;;14.60;99.90;;;;;;5039710;28;20542;-70
2023/08/06 03:45:42;;;;;;;6.25;3.40;;;14.60;99.90;;;;;;5040124;28;20041;-70
2023/08/06 03:48:08;;;;;;;5.25;2.85;;;14.60;99.90;;;;;;5040721;28;20033;-70
2023/08/06 03:50:34;;;;;;;6.05;3.20;;;14.60;99.90;;;;;;5046787;28;20122;-70
2023/08/06 03:53:00;;;;;;;6.80;2.95;;;14.60;99.90;;;;;;5039551;28;20032;-70
2023/08/06 03:55:26;;;;;;;6.95;3.17;;;14.60;99.90;;;;;;5044950;28;20371;-70
2023/08/06 03:57:51;;;;;;;7.82;2.97;;;14.50;99.90;;;;;;5047839;28;20373;-70
2023/08/06 04:00:17;;;;;;;6.30;3.40;;;14.50;99.90;;;;;;5046878;28;20029;-70
2023/08/06 04:02:43;;;;;;;6.70;2.90;;;14.50;99.90;;;;;;5047046;28;20045;-70
2023/08/06 04:05:08;;;;;;;5.65;2.65;;;14.40;99.90;;;;;;5047679;28;20048;-70
2023/08/06 04:07:34;;;;;;;7.78;3.13;;;14.40;99.90;;;;;;5040943;28;21611;-70
2023/08/06 04:10:02;;;;;;;7.88;3.70;;;14.40;99.90;;;;;;5045701;28;20029;-70
2023/08/06 04:12:28;;;;;;;7.10;3.42;;;14.40;99.90;;;;;;5045704;28;20891;-70
2023/08/06 04:14:55;;;;;;;7.30;3.05;;;14.40;99.90;;;;;;5044750;28;20179;-70
2023/08/06 04:17:21;;;;;;;6.60;2.95;;;14.40;99.90;;;;;;5044679;28;20580;-70
2023/08/06 04:19:52;;;;;;;5.95;3.05;;;14.40;99.90;;;;;;5041031;28;20036;-70
2023/08/06 04:22:18;;;;;;;10.40;3.33;;;14.30;99.90;;;;;;5080168;28;20040;-70
2023/08/06 04:24:44;;;;;;;5.18;2.63;;;14.30;99.90;;;;;;5029814;28;20118;-70
2023/08/06 04:27:10;;;;;;;5.07;2.80;;;14.30;99.90;;;;;;5045944;28;20076;-70
2023/08/06 04:29:36;;;;;;;6.60;3.42;;;14.30;99.90;;;;;;5046917;28;20380;-70
2023/08/06 04:32:03;;;;;;;5.75;3.03;;;14.30;99.90;;;;;;5079899;28;20025;-70
2023/08/06 04:34:29;;;;;;;6.03;3.28;;;14.30;99.90;;;;;;5045654;28;20132;-70
2023/08/06 04:36:54;;;;;;;9.65;2.78;;;14.30;99.90;;;;;;5044743;28;20128;-70
2023/08/06 04:39:21;;;;;;;7.25;3.45;;;14.30;99.90;;;;;;5051314;28;20037;-70
2023/08/06 04:41:47;;;;;;;6.05;3.33;;;14.30;99.90;;;;;;5059671;28;20041;-70
2023/08/06 04:44:12;;;;;;;7.70;3.30;;;14.30;99.90;;;;;;5046573;28;20123;-70
2023/08/06 04:46:38;;;;;;;7.05;3.67;;;14.30;99.90;;;;;;5045241;28;20044;-70
2023/08/06 04:49:04;;;;;;;5.57;3.15;;;14.30;99.90;;;;;;5046047;28;20033;-70
2023/08/06 04:51:29;;;;;;;6.57;3.15;;;14.30;99.90;;;;;;5043376;28;20487;-70
2023/08/06 04:53:57;;;;;;;5.95;3.58;;;14.30;99.90;;;;;;5045905;28;20037;-70
2023/08/06 04:56:22;;;;;;;6.55;3.13;;;14.30;99.90;;;;;;5045347;28;20044;-70
2023/08/06 04:58:48;;;;;;;6.47;3.30;;;14.40;99.90;;;;;;5045678;28;20131;-70
2023/08/06 05:01:14;;;;;;;6.30;3.22;;;14.40;99.90;;;;;;5043759;28;20037;-70
2023/08/06 05:03:40;;;;;;;6.85;3.20;;;14.40;99.90;;;;;;5043352;28;20041;-70
2023/08/06 05:06:05;;;;;;;6.45;3.03;;;14.40;99.90;;;;;;5040136;28;20040;-70
2023/08/06 05:08:31;;;;;;;6.10;3.17;;;14.40;99.90;;;;;;5044249;28;20036;-70
2023/08/06 05:10:56;;;;;;;6.05;3.28;;;14.40;99.90;;;;;;5026789;28;20047;-70
2023/08/06 05:13:22;;;;;;;7.50;3.58;;;14.40;99.90;;;;;;5043449;28;20464;-70
2023/08/06 05:15:47;;;;;;;7.72;3.50;;;14.50;99.90;;;;;;5041599;28;20047;-70
2023/08/06 05:18:13;;;;;;;7.65;3.55;;;14.50;99.90;;;;;;5044682;28;20128;-70
2023/08/06 05:20:40;;;;;;;5.95;3.30;;;14.50;99.90;;;;;;5039305;28;20049;-70
2023/08/06 05:23:06;;;;;;;8.00;3.40;;;14.50;99.90;;;;;;5041991;28;20051;-70
2023/08/06 05:25:32;;;;;;;6.50;3.28;;;14.60;99.90;;;;;;5043080;28;20037;-70
2023/08/06 05:27:57;;;;;;;7.20;3.88;;;14.60;99.90;;;;;;5020202;28;20556;-70
2023/08/06 05:30:23;;;;;;;6.20;3.28;;;14.70;99.90;;;;;;5042916;28;20043;-70
2023/08/06 05:32:48;;;;;;;8.88;3.85;;;14.60;99.90;;;;;;5042650;28;20418;-70
2023/08/06 05:35:14;;;;;;;6.75;3.63;;;14.60;99.90;;;;;;5043946;28;20037;-70
2023/08/06 05:37:39;;;;;;;9.15;3.38;;;14.60;99.90;;;;;;5037094;28;20738;-70
2023/08/06 05:40:05;;;;;;;8.30;3.55;;;14.60;99.90;;;;;;5042741;28;20468;-70
2023/08/06 05:42:31;;;;;;;6.70;3.60;;;14.60;99.90;;;;;;5043705;28;20051;-70
2023/08/06 05:44:56;;;;;;;7.68;3.58;;;14.60;99.90;;;;;;5042325;28;20033;-70
2023/08/06 05:47:22;;;;;;;7.25;3.53;;;14.70;99.90;;;;;;5042118;28;20383;-70
2023/08/06 05:49:48;;;;;;;6.03;3.58;;;14.70;99.90;;;;;;5039938;28;20346;-70
2023/08/06 05:52:13;;;;;;;6.50;3.38;;;14.70;99.90;;;;;;5038269;28;20041;-70
2023/08/06 05:54:40;;;;;;;7.57;3.35;;;14.70;99.90;;;;;;5043983;28;20060;-70
2023/08/06 05:57:06;;;;;;;8.25;3.60;;;14.80;99.90;;;;;;5031202;28;20052;-70
2023/08/06 05:59:32;;;;;;;6.95;3.38;;;14.80;99.90;;;;;;5044839;28;20036;-70
2023/08/06 06:01:57;;;;;;;6.43;3.63;;;14.80;99.90;;;;;;5040935;28;20244;-70
2023/08/06 06:04:23;;;;;;;6.35;3.58;;;14.80;99.90;;;;;;5037505;28;20033;-70
2023/08/06 06:06:48;;;;;;;8.13;3.42;;;14.90;99.90;;;;;;5036078;28;20049;-70
2023/08/06 06:09:14;;;;;;;5.78;3.65;;;14.90;99.90;;;;;;5021684;28;20246;-70
2023/08/06 06:11:40;;;;;;;7.70;3.80;;;14.90;99.90;;;;;;5040960;28;20055;-70
2023/08/06 06:14:05;;;;;;;6.80;4.15;;;14.90;99.90;;;;;;5046545;28;20041;-70
2023/08/06 06:16:31;;;;;;;8.80;3.75;;;14.90;99.90;;;;;;5043545;28;20037;-70
2023/08/06 06:18:57;;;;;;;6.65;3.83;;;14.90;99.90;;;;;;5041296;28;20041;-70
2023/08/06 06:21:23;;;;;;;6.15;3.53;;;14.90;99.90;;;;;;5041693;28;20398;-70
2023/08/06 06:23:49;;;;;;;8.18;4.13;;;14.90;99.90;;;;;;5038875;28;20500;-70
2023/08/06 06:26:15;;;;;;;9.68;4.75;;;15.00;99.90;;;;;;5041734;28;20060;-70
2023/08/06 06:28:40;;;;;;;7.25;3.95;;;15.00;99.90;;;;;;5042160;28;20049;-70
2023/08/06 06:31:06;;;;;;;6.68;3.80;;;15.00;99.90;;;;;;5044589;28;20040;-70
2023/08/06 06:33:31;;;;;;;8.23;3.55;;;14.90;99.90;;;;;;5039307;28;20036;-70
2023/08/06 06:35:57;;;;;;;9.40;3.90;;;14.90;99.90;;;;;;5072936;28;20558;-70
2023/08/06 06:38:22;;;;;;;6.93;3.58;;;15.00;99.90;;;;;;5041651;28;20040;-70
2023/08/06 06:40:57;;;;;;;8.45;3.83;;;15.00;99.90;;;;;;5022785;28;20045;-70
2023/08/06 06:43:24;;;;;;;9.25;4.55;;;15.00;99.90;;;;;;5042196;28;20039;-70
2023/08/06 06:45:59;;;;;;;7.43;3.67;;;15.00;99.90;;;;;;5042922;28;20032;-70
2023/08/06 06:48:25;;;;;;;;;;;15.10;99.90;;;;;;5038111;28;20036;-70
2023/08/06 06:50:51;;;;;;;;;;;15.10;99.90;;;;;;5074896;28;20383;-70
2023/08/06 06:53:16;;;;;;;8.65;4.25;;;15.10;99.90;;;;;;5041410;28;20356;-71
2023/08/06 06:55:42;;;;;;;8.73;4.70;;;15.10;99.90;;;;;;5043277;28;20494;-70
2023/08/06 06:58:08;;;;;;;7.05;4.03;;;15.10;99.90;;;;;;5072975;28;20564;-70
2023/08/06 07:00:36;;;;;;;7.43;4.22;;;15.10;99.90;;;;;;5041536;28;20068;-70
2023/08/06 07:03:02;;;;;;;8.13;4.43;;;15.10;99.90;;;;;;5037553;28;20052;-70
2023/08/06 07:05:28;;;;;;;7.35;4.13;;;15.10;99.90;;;;;;5039781;28;20033;-70
2023/08/06 07:07:53;;;;;;;9.00;4.20;;;15.20;99.90;;;;;;5074716;28;20040;-70
2023/08/06 07:10:19;;;;;;;8.60;3.92;;;15.10;99.90;;;;;;5040658;28;20063;-70
2023/08/06 07:12:44;;;;;;;7.22;4.03;;;15.20;99.90;;;;;;5041124;28;20055;-70
2023/08/06 07:15:10;;;;;;;6.78;3.88;;;15.30;99.90;;;;;;5042233;28;20571;-70
2023/08/06 07:17:36;;;;;;;10.18;4.07;;;15.20;99.90;;;;;;5043211;28;20120;-70
2023/08/06 07:20:02;;;;;;;7.95;4.13;;;15.30;99.90;;;;;;5037715;28;20668;-70
2023/08/06 07:22:28;;;;;;;6.32;3.63;;;15.30;99.90;;;;;;5039813;28;20513;-70
2023/08/06 07:24:53;;;;;;;14.45;4.47;;;15.30;99.90;;;;;;5030933;28;20045;-70
2023/08/06 07:27:19;;;;;;;9.63;4.00;;;15.30;99.90;;;;;;5072298;28;20407;-70
2023/08/06 07:29:44;;;;;;;8.30;3.97;;;15.30;99.90;;;;;;5035555;28;20086;-70
2023/08/06 07:32:10;;;;;;;7.65;3.55;;;15.30;99.90;;;;;;5036096;28;20041;-70
2023/08/06 07:34:36;;;;;;;7.18;4.00;;;15.30;99.90;;;;;;5068643;28;20048;-70
2023/08/06 07:37:01;;;;;;;6.00;3.58;;;15.30;99.90;;;;;;5037333;28;20500;-71
2023/08/06 07:39:28;;;;;;;7.93;3.80;;;15.30;99.90;;;;;;5040338;28;20522;-71
2023/08/06 07:41:54;;;;;;;8.15;3.95;;;15.40;99.90;;;;;;5036529;28;20485;-70
2023/08/06 07:44:19;;;;;;;5.82;3.38;;;15.40;99.90;;;;;;5037901;28;20270;-70
2023/08/06 07:46:45;;;;;;;7.15;3.63;;;15.40;99.90;;;;;;5040956;28;20294;-70
2023/08/06 07:49:11;;;;;;;6.35;3.42;;;15.40;99.90;;;;;;5039958;28;20124;-70
2023/08/06 07:51:37;;;;;;;7.93;4.18;;;15.50;99.90;;;;;;5068541;28;20071;-70
2023/08/06 07:54:03;;;;;;;7.82;3.42;;;15.50;99.90;;;;;;5040628;28;20051;-71
2023/08/06 07:56:28;;;;;;;8.93;3.78;;;15.60;99.90;;;;;;5071391;28;20033;-70
2023/08/06 07:58:54;;;;;;;6.53;3.63;;;15.60;99.90;;;;;;5037138;28;20029;-70
2023/08/06 08:01:20;;;;;;;10.27;3.60;;;15.70;99.90;;;;;;5072605;28;20422;-71
2023/08/06 08:03:45;;;;;;;7.22;4.00;;;15.70;99.90;;;;;;5012349;28;20044;-71
2023/08/06 08:06:11;;;;;;;7.05;3.58;;;15.80;99.90;;;;;;5038438;28;20033;-70
2023/08/06 08:08:38;;;;;;;5.93;3.70;;;15.80;99.90;;;;;;5040835;28;20115;-70
2023/08/06 08:11:04;;;;;;;7.63;4.07;;;15.80;99.90;;;;;;5071031;28;20049;-71
2023/08/06 08:13:29;;;;;;;6.07;3.47;;;15.90;99.90;;;;;;5067312;28;20040;-71
2023/08/06 08:15:59;;;;;;;6.57;4.03;;;16.00;99.90;;;;;;5070629;28;20076;-71
2023/08/06 08:18:25;;;;;;;6.55;3.35;;;16.10;99.90;;;;;;5069286;28;20040;-71
2023/08/06 08:20:51;;;;;;;7.55;3.90;;;16.20;99.90;;;;;;5039490;28;20053;-71
2023/08/06 08:23:16;;;;;;;9.77;3.83;;;16.20;99.90;;;;;;5039021;28;20467;-71
2023/08/06 08:25:42;;;;;;;7.15;3.95;;;16.20;99.90;;;;;;5042559;28;20041;-71
2023/08/06 08:28:07;;;;;;;6.57;3.58;;;16.30;99.90;;;;;;5051829;28;20095;-70
2023/08/06 08:30:33;;;;;;;6.25;3.50;;;16.30;99.90;;;;;;5038343;28;20087;-71
2023/08/06 08:32:59;;;;;;;7.25;3.75;;;16.30;99.90;;;;;;5038582;28;20041;-70
2023/08/06 08:35:24;;;;;;;6.43;3.75;;;16.40;99.90;;;;;;5039635;28;20061;-71
2023/08/06 08:37:51;;;;;;;6.20;3.50;;;16.40;99.90;;;;;;5072962;28;20037;-70
2023/08/06 08:40:17;;;;;;;5.60;3.30;;;16.50;99.90;;;;;;5041494;28;20041;-70
2023/08/06 08:42:43;;;;;;;4.90;3.25;;;16.60;99.90;;;;;;5043730;28;20033;-71
2023/08/06 08:45:15;;;;;;;6.40;3.20;;;16.60;99.90;;;;;;5043222;28;20041;-71
2023/08/06 08:47:42;;;;;;;5.90;3.28;;;16.70;99.90;;;;;;5040256;28;20048;-71
2023/08/06 08:50:10;;;;;;;4.80;3.15;;;16.70;99.90;;;;;;5041593;28;20033;-70
2023/08/06 08:52:37;;;;;;;4.47;3.00;;;16.70;99.90;;;;;;5073142;28;20053;-71
2023/08/06 08:55:04;;;;;;;4.90;2.72;;;16.80;99.90;;;;;;5043507;28;20048;-70
2023/08/06 08:57:29;;;;;;;7.25;3.55;;;16.80;99.90;;;;;;5040479;28;20064;-71
2023/08/06 08:59:55;;;;;;;5.50;3.08;;;16.90;99.90;;;;;;5045215;28;20486;-70
2023/08/06 09:02:21;;;;;;;5.93;3.10;;;16.90;99.90;;;;;;5039458;28;20045;-71
2023/08/06 09:04:48;;;;;;;6.00;2.97;;;17.00;99.90;;;;;;5042370;28;20045;-70
2023/08/06 09:07:19;;;;;;;4.05;2.58;;;17.00;99.90;;;;;;5042336;28;20029;-71
2023/08/06 09:09:48;;;;;;;4.55;2.60;;;17.10;99.90;;;;;;5042560;28;20052;-70
2023/08/06 09:12:16;;;;;;;4.55;2.60;;;17.10;99.90;;;;;;5041594;28;20089;-70
2023/08/06 09:14:42;;;;;;;3.65;2.30;;;17.20;99.90;;;;;;5044054;28;20045;-71
2023/08/06 09:17:10;;;;;;;4.85;2.50;;;17.30;99.90;;;;;;5024364;28;20045;-70
2023/08/06 09:19:36;;;;;;;4.63;2.65;;;17.30;99.90;;;;;;5043378;28;20033;-71
2023/08/06 09:22:02;;;;;;;4.70;2.50;;;17.30;99.90;;;;;;5074108;28;20029;-70
2023/08/06 09:24:28;;;;;;;3.70;2.17;;;17.30;99.90;;;;;;5038875;28;20127;-71
2023/08/06 09:26:54;;;;;;;3.08;2.20;;;17.40;99.90;;;;;;5036835;28;20099;-70
2023/08/06 09:29:20;;;;;;;5.28;2.47;;;17.40;99.90;;;;;;5021266;28;20044;-71
2023/08/06 09:31:47;;;;;;;4.07;2.45;;;17.40;99.90;;;;;;5039113;28;20248;-70
2023/08/06 09:34:21;;;;;;;3.80;2.40;;;17.50;99.90;;;;;;5038500;28;20037;-71
2023/08/06 09:36:54;;;;;;;4.90;2.97;;;17.50;99.90;;;;;;5062939;28;20108;-71
2023/08/06 09:39:22;;;;;;;4.93;2.90;;;17.50;99.90;;;;;;5016256;28;20499;-72
2023/08/06 09:41:48;;;;;;;4.63;2.47;;;17.60;99.90;;;;;;5035658;28;20447;-72
2023/08/06 09:44:18;;;;;;;3.60;2.10;;;17.60;99.90;;;;;;5016156;28;20167;-72
2023/08/06 09:46:58;;;;;;;4.38;2.40;;;17.60;99.90;;;;;;5065309;28;20053;-72
2023/08/06 09:49:28;;;;;;;3.35;2.05;;;17.70;99.90;;;;;;5065401;28;20043;-71
2023/08/06 09:51:59;;;;;;;4.00;2.03;;;17.70;99.90;;;;;;5068801;28;20040;-71
2023/08/06 09:54:30;;;;;;;4.32;2.22;;;17.80;99.90;;;;;;5041121;28;20048;-71
2023/08/06 09:56:56;;;;;;;5.88;2.70;;;17.80;99.90;;;;;;5037804;28;20146;-71
2023/08/06 09:59:25;;;;;;;5.00;2.28;;;17.80;99.90;;;;;;5034038;28;20040;-70
2023/08/06 10:01:51;;;;;;;3.90;2.40;;;17.80;99.90;;;;;;5050327;28;20043;-71
2023/08/06 10:04:17;;;;;;;4.32;2.33;;;17.80;99.90;;;;;;5035944;28;20029;-71
2023/08/06 10:06:46;;;;;;;3.92;1.63;;;17.90;99.90;;;;;;5056968;28;20634;-70
2023/08/06 10:09:12;;;;;;;3.72;1.75;;;17.90;99.90;;;;;;5035846;28;20049;-71
2023/08/06 10:11:39;;;;;;;3.03;2.05;;;17.90;99.90;;;;;;5036173;28;20063;-71
2023/08/06 10:14:11;;;;;;;3.05;1.83;;;17.90;99.90;;;;;;5034192;28;20033;-71
2023/08/06 10:16:39;;;;;;;4.18;1.95;;;18.00;99.90;;;;;;5043283;28;20142;-72
2023/08/06 10:19:06;;;;;;;3.38;1.90;;;18.00;99.90;;;;;;5037212;28;20598;-72
2023/08/06 10:21:32;;;;;;;4.70;1.98;;;18.00;99.90;;;;;;5065034;28;20434;-72
2023/08/06 10:23:57;;;;;;;3.40;2.08;;;18.00;99.90;;;;;;5032407;28;20078;-72
2023/08/06 10:26:30;;;;;;;3.28;1.83;;;18.00;99.90;;;;;;5035742;28;20045;-71
2023/08/06 10:28:56;;;;;;;2.80;1.75;;;18.10;99.90;;;;;;5063013;28;20075;-73
2023/08/06 10:31:55;;;;;;;4.55;2.10;;;18.10;99.90;;;;;;5029425;28;20514;-73
2023/08/06 10:34:20;;;;;;;5.35;2.13;;;18.10;99.90;;;;;;5039075;28;21422;-73
2023/08/06 10:36:46;;;;;;;4.70;1.70;;;18.10;99.90;;;;;;5013472;28;20037;-73
2023/08/06 10:39:14;;;;;;;4.50;1.60;;;18.20;99.90;;;;;;5026724;28;20087;-73
2023/08/06 10:41:42;;;;;;;3.67;1.85;;;18.20;99.90;;;;;;5031248;28;20044;-72
2023/08/06 10:44:09;;;;;;;4.70;2.17;;;18.20;99.90;;;;;;5030157;28;20072;-73
2023/08/06 10:46:35;;;;;;;3.80;2.40;;;18.10;99.90;;;;;;5030017;28;20044;-73
2023/08/06 10:49:01;;;;;;;6.28;3.38;;;18.20;99.90;;;;;;5032940;28;20548;-73
2023/08/06 10:51:27;;;;;;;3.55;1.88;;;18.10;99.90;;;;;;5031798;28;20731;-72
2023/08/06 10:53:53;;;;;;;2.65;1.60;;;18.20;99.90;;;;;;5033907;28;20041;-73
2023/08/06 10:56:22;;;;;;;2.60;1.40;;;18.20;99.90;;;;;;5036866;28;20341;-73
2023/08/06 10:58:48;;;;;;;1.98;1.30;;;18.20;99.90;;;;;;5021900;28;20406;-73
2023/08/06 11:01:14;;;;;;;3.00;1.50;;;18.20;99.90;;;;;;5035348;28;20044;-73
2023/08/06 11:03:41;;;;;;;2.30;1.40;;;18.30;99.90;;;;;;5034606;28;20048;-73
2023/08/06 11:06:07;;;;;;;3.88;1.23;;;18.20;99.90;;;;;;5013114;28;20345;-73
2023/08/06 11:08:35;;;;;;;4.40;1.45;;;18.30;99.90;;;;;;5035305;28;20029;-73
2023/08/06 11:11:13;;;;;;;2.85;1.20;;;18.30;99.90;;;;;;5036006;28;20037;-73
2023/08/06 11:13:42;;;;;;;3.03;1.38;;;18.30;99.90;;;;;;5037253;28;20044;-73
2023/08/06 11:16:09;;;;;;;2.78;1.10;;;18.30;99.90;;;;;;5034558;28;20072;-73
2023/08/06 11:18:34;;;;;;;3.20;1.10;;;18.30;99.90;;;;;;5058359;28;20091;-73
2023/08/06 11:21:01;;;;;;;3.08;1.35;;;18.30;99.90;;;;;;5025208;28;20407;-73
2023/08/06 11:23:31;;;;;;;2.25;1.00;;;18.30;99.90;;;;;;5026045;28;20126;-73
2023/08/06 11:25:57;;;;;;;2.15;1.20;;;18.30;99.90;;;;;;5026563;28;20053;-72
2023/08/06 11:28:24;;;;;;;2.05;1.23;;;18.30;99.90;;;;;;5033346;28;20049;-73
2023/08/06 11:30:50;;;;;;;2.00;1.05;;;18.30;99.90;;;;;;5038910;28;20049;-73
2023/08/06 11:33:25;;;;;;;3.90;2.13;;;18.40;99.90;;;;;;5033632;28;20866;-73
2023/08/06 11:35:51;;;;;;;3.63;1.45;;;18.40;99.90;;;;;;5029179;28;20522;-72
2023/08/06 11:38:18;;;;;;;2.45;1.10;;;18.40;99.90;;;;;;5023253;28;20037;-72
2023/08/06 11:40:50;;;;;;;2.78;1.30;;;18.40;99.90;;;;;;5024559;28;20044;-72
2023/08/06 11:43:18;;;;;;;2.13;0.90;;;18.50;99.90;;;;;;5027263;28;20399;-72
2023/08/06 11:45:44;;;;;;;3.22;1.08;;;18.50;99.90;;;;;;5027403;28;20467;-73
2023/08/06 11:48:10;;;;;;;2.47;1.13;;;18.60;99.90;;;;;;5024962;28;20044;-73
2023/08/06 11:50:39;;;;;;;2.90;1.17;;;18.70;99.90;;;;;;5023681;28;20768;-72
2023/08/06 11:53:05;;;;;;;3.58;1.50;;;18.80;99.90;;;;;;5024571;28;20055;-72
2023/08/06 11:55:31;;;;;;;2.65;1.05;;;18.80;99.90;;;;;;5030503;28;20033;-73
2023/08/06 11:57:58;;;;;;;1.95;0.85;;;19.00;99.90;;;;;;5063352;28;20129;-72
2023/08/06 12:00:25;;;;;;;1.70;0.95;;;19.10;99.90;;;;;;5029013;28;20045;-72
2023/08/06 12:02:52;;;;;;;2.22;0.90;;;19.20;99.90;;;;;;5029095;28;20057;-73
2023/08/06 12:05:25;;;;;;;2.92;1.20;;;19.20;99.90;;;;;;5025799;28;20121;-72
2023/08/06 12:07:57;;;;;;;3.10;1.02;;;19.30;99.90;;;;;;5020409;28;20176;-72
2023/08/06 12:10:25;;;;;;;2.58;1.00;;;19.30;99.90;;;;;;5058908;28;20064;-72
2023/08/06 12:12:51;;;;;;;1.88;1.00;;;19.30;99.90;;;;;;5030581;28;20768;-72
2023/08/06 12:15:17;;;;;;;2.88;1.15;;;19.30;99.90;;;;;;5024412;28;20033;-72
2023/08/06 12:17:43;;;;;;;1.80;1.05;;;19.30;99.90;;;;;;5032249;28;20049;-72
2023/08/06 12:20:09;;;;;;;2.08;1.00;;;19.30;99.90;;;;;;5019708;28;20534;-71
2023/08/06 12:22:37;;;;;;;2.35;1.00;;;19.30;99.90;;;;;;5040968;28;20025;-72
2023/08/06 12:25:07;;;;;;;1.80;1.00;;;19.30;99.90;;;;;;5038719;28;20557;-71
2023/08/06 12:27:36;;;;;;;2.33;1.02;;;19.30;99.90;;;;;;5035742;28;20565;-73
2023/08/06 12:30:03;;;;;;;2.05;1.10;;;19.30;99.90;;;;;;5068234;28;20048;-71
2023/08/06 12:32:29;;;;;;;2.67;1.30;;;19.20;99.90;;;;;;5020245;28;20037;-72
2023/08/06 12:34:55;;;;;;;2.88;0.80;;;19.20;99.90;;;;;;5043137;28;20029;-72
2023/08/06 12:37:20;;;;;;;2.67;1.10;;;19.20;99.90;;;;;;5041156;28;21326;-72
2023/08/06 12:39:46;;;;;;;2.45;1.00;;;19.10;99.90;;;;;;5042280;28;20470;-72
2023/08/06 12:42:12;;;;;;;2.05;1.00;;;19.10;99.90;;;;;;5040281;28;20178;-72
2023/08/06 12:44:37;;;;;;;2.05;0.95;;;19.10;99.90;;;;;;5040213;28;20087;-72
2023/08/06 12:47:03;;;;;;;3.83;1.00;;;19.10;99.90;;;;;;5036798;28;20048;-72